Terminal Aerodrome Forecast
Issued by NWS

Home | Current Version | Previous Version | Graphics & Text | Print | Product List | Glossary On
Versions: 1 2 3 4 5 6 7 8 9 10 11 12 13 14 15 16
000
FTUS42 KMHX 252331
TAFOAJ
TAF
KOAJ 252331Z 2600/2624 VRB03KT P6SM VCSH OVC100
     FM260100 02008KT 4SM -RAPL BR OVC007
     FM260300 03010G18KT 2SM RA BR OVC005
     FM261100 36010G18KT 6SM -DZ BR OVC005
     FM261500 01008KT P6SM BKN005 OVC015
      AMD LTD TO CLD VIS AND WIND=

USA.gov is the U.S. government's official web portal to all federal, state and local government web resources and services.